Terminal Aerodrome Forecast
Issued by NWS

Home | Current Version | Previous Version | Text Only | Print | Product List | Glossary On
Versions: 1 2 3 4 5 6 7 8 9 10 11 12 13 14 15 16 17 18 19 20
000
FTUS43 KDDC 200551 AAB
TAFHYS
TAF AMD
KHYS 200551Z 2006/2106 01013KT 2SM -SN BR BKN006 OVC010
     FM200900 36017G27KT 5SM BR OVC010
     FM201200 36017G27KT P6SM OVC030
     FM201500 35015G25KT P6SM BKN030
     FM201800 36012KT P6SM SKC=

USA.gov is the U.S. government's official web portal to all federal, state and local government web resources and services.